Time;durP1;ratioP1;P1;durP2;ratioP2;P2;SDS_P1;SDS_P2;PMS_P1;PMS_P2;Temp;Humidity;BMP_temperature;BMP_pressure;BME280_temperature;BME280_humidity;BME280_pressure;Samples;Min_cycle;Max_cycle;Signal;HPM_P1;HPM_P2
2023/07/14 00:01:36;;;;;;;;;4.00;4.00;;;;;;;;5032887;28;51814;-56
2023/07/14 00:04:02;;;;;;;;;6.00;6.00;;;;;;;;5033369;28;51169;-56
2023/07/14 00:06:27;;;;;;;;;5.00;5.00;;;;;;;;5033143;28;50970;-56
2023/07/14 00:08:52;;;;;;;;;6.33;6.00;;;;;;;;5031739;28;51228;-54
2023/07/14 00:11:22;;;;;;;;;4.67;4.67;;;;;;;;5032629;28;51981;-54
2023/07/14 00:13:48;;;;;;;;;4.67;4.67;;;;;;;;5033298;28;50841;-55
2023/07/14 00:16:15;;;;;;;;;5.00;5.00;;;;;;;;5032919;28;50920;-55
2023/07/14 00:18:40;;;;;;;;;3.67;3.67;;;;;;;;5032943;28;50959;-54
2023/07/14 00:21:13;;;;;;;;;5.00;5.00;;;;;;;;5032440;28;51777;-54
2023/07/14 00:23:38;;;;;;;;;6.00;6.00;;;;;;;;5028774;28;50971;-55
2023/07/14 00:26:04;;;;;;;;;5.33;5.00;;;;;;;;5016164;28;51314;-55
2023/07/14 00:28:29;;;;;;;;;8.67;7.00;;;;;;;;5033284;28;51128;-55
2023/07/14 00:30:55;;;;;;;;;8.33;8.00;;;;;;;;5032512;28;51044;-55
2023/07/14 00:33:20;;;;;;;;;6.33;6.00;;;;;;;;5032947;28;51036;-54
2023/07/14 00:35:47;;;;;;;;;7.33;6.00;;;;;;;;5033042;28;50926;-55
2023/07/14 00:38:12;;;;;;;;;8.67;8.67;;;;;;;;5033064;28;51093;-56
2023/07/14 00:40:42;;;;;;;;;12.00;12.00;;;;;;;;5029858;28;52464;-55
2023/07/14 00:43:17;;;;;;;;;14.33;13.00;;;;;;;;5026375;28;50981;-56
2023/07/14 00:45:43;;;;;;;;;14.33;13.67;;;;;;;;5032221;28;51113;-56
2023/07/14 00:48:12;;;;;;;;;14.75;14.75;;;;;;;;5032741;28;50910;-55
2023/07/14 00:50:40;;;;;;;;;15.00;12.75;;;;;;;;5032004;28;52041;-56
2023/07/14 00:53:19;;;;;;;;;18.50;18.00;;;;;;;;5030411;28;50947;-55
2023/07/14 00:55:47;;;;;;;;;18.75;18.25;;;;;;;;5031253;28;51221;-55
2023/07/14 00:58:14;;;;;;;;;14.25;13.75;;;;;;;;5029799;28;51088;-55
2023/07/14 01:00:39;;;;;;;;;15.00;13.00;;;;;;;;5030932;28;51901;-54
2023/07/14 01:03:13;;;;;;;;;11.00;11.00;;;;;;;;5032090;28;51115;-54
2023/07/14 01:05:38;;;;;;;;;14.00;12.00;;;;;;;;5032503;28;51131;-56
2023/07/14 01:08:04;;;;;;;;;11.50;11.25;;;;;;;;5032841;28;50932;-55
2023/07/14 01:10:29;;;;;;;;;12.33;11.00;;;;;;;;5023333;28;51904;-55
2023/07/14 01:13:01;;;;;;;;;15.00;13.25;;;;;;;;5020598;28;50974;-55
2023/07/14 01:15:26;;;;;;;;;13.50;13.00;;;;;;;;5035203;28;50982;-56
2023/07/14 01:17:53;;;;;;;;;11.33;11.33;;;;;;;;5035755;28;51023;-55
2023/07/14 01:20:18;;;;;;;;;12.00;12.00;;;;;;;;5035630;28;51676;-54
2023/07/14 01:22:47;;;;;;;;;13.00;10.00;;;;;;;;5035550;28;51002;-54
2023/07/14 01:25:24;;;;;;;;;11.00;10.00;;;;;;;;5035573;28;51038;-53
2023/07/14 01:27:49;;;;;;;;;11.00;10.00;;;;;;;;5033631;28;51307;-53
2023/07/14 01:30:15;;;;;;;;;8.00;7.67;;;;;;;;5035518;28;50997;-54
2023/07/14 01:32:50;;;;;;;;;9.00;9.00;;;;;;;;5034133;28;51038;-54
2023/07/14 01:35:16;;;;;;;;;6.33;5.00;;;;;;;;5035808;28;51116;-54
2023/07/14 01:37:42;;;;;;;;;8.00;8.00;;;;;;;;5034271;28;51317;-55
2023/07/14 01:40:12;;;;;;;;;9.33;8.00;;;;;;;;5034986;28;52650;-54
2023/07/14 01:42:40;;;;;;;;;10.33;9.33;;;;;;;;5035456;28;50932;-57
2023/07/14 01:45:09;;;;;;;;;8.33;8.00;;;;;;;;5027067;28;51162;-55
2023/07/14 01:47:36;;;;;;;;;10.00;8.67;;;;;;;;5032911;28;51233;-56
2023/07/14 01:50:02;;;;;;;;;11.00;10.00;;;;;;;;5035249;28;51936;-55
2023/07/14 01:52:30;;;;;;;;;11.50;10.00;;;;;;;;5033848;28;51039;-55
2023/07/14 01:54:58;;;;;;;;;14.00;11.00;;;;;;;;5033732;28;51067;-54
2023/07/14 01:57:25;;;;;;;;;14.00;13.00;;;;;;;;5035454;28;51033;-55
2023/07/14 01:59:54;;;;;;;;;14.75;12.50;;;;;;;;5034827;28;50935;-55
2023/07/14 02:02:33;;;;;;;;;17.00;16.00;;;;;;;;5026594;28;51021;-55
2023/07/14 02:05:02;;;;;;;;;21.25;20.25;;;;;;;;5035047;28;51218;-55
2023/07/14 02:07:27;;;;;;;;;17.75;16.25;;;;;;;;5035290;28;51405;-56
2023/07/14 02:09:52;;;;;;;;;25.75;24.75;;;;;;;;5030268;28;51295;-56
2023/07/14 02:12:25;;;;;;;;;23.25;21.75;;;;;;;;5033762;28;51233;-57
2023/07/14 02:15:02;;;;;;;;;16.00;15.00;;;;;;;;5032901;28;50882;-55
2023/07/14 02:17:33;;;;;;;;;18.00;15.75;;;;;;;;5033598;28;50939;-54
2023/07/14 02:20:00;;;;;;;;;18.50;17.00;;;;;;;;5032657;28;52082;-56
2023/07/14 02:22:26;;;;;;;;;17.00;15.75;;;;;;;;5033177;28;51151;-54
2023/07/14 02:24:52;;;;;;;;;14.50;14.50;;;;;;;;5031587;28;51133;-55
2023/07/14 02:27:18;;;;;;;;;17.75;16.75;;;;;;;;5028605;28;51287;-55
2023/07/14 02:29:44;;;;;;;;;20.75;19.25;;;;;;;;5032351;28;51864;-56
2023/07/14 02:32:16;;;;;;;;;25.50;22.75;;;;;;;;5034439;28;51041;-55
2023/07/14 02:34:45;;;;;;;;;22.00;21.75;;;;;;;;5021738;28;51054;-55
2023/07/14 02:37:36;;;;;;;;;19.00;17.75;;;;;;;;5033504;28;51388;-56
2023/07/14 02:40:04;;;;;;;;;14.00;12.00;;;;;;;;5033874;28;51710;-55
2023/07/14 02:42:35;;;;;;;;;18.67;16.67;;;;;;;;5034384;28;50997;-55
2023/07/14 02:45:00;;;;;;;;;13.00;12.33;;;;;;;;5033125;28;51134;-55
2023/07/14 02:47:26;;;;;;;;;16.33;15.67;;;;;;;;5034212;28;51352;-55
2023/07/14 02:49:51;;;;;;;;;15.25;14.00;;;;;;;;5034372;28;51742;-55
2023/07/14 02:52:16;;;;;;;;;18.50;18.00;;;;;;;;5031041;28;51135;-56
2023/07/14 02:54:41;;;;;;;;;18.25;18.25;;;;;;;;5025721;28;51171;-57
2023/07/14 02:57:06;;;;;;;;;11.67;11.67;;;;;;;;5034553;28;51343;-55
2023/07/14 02:59:32;;;;;;;;;11.00;9.33;;;;;;;;5034321;28;51860;-55
2023/07/14 03:01:57;;;;;;;;;9.67;9.67;;;;;;;;5034027;28;50960;-54
2023/07/14 03:04:23;;;;;;;;;11.33;11.00;;;;;;;;5034414;28;51069;-56
2023/07/14 03:06:48;;;;;;;;;9.00;9.00;;;;;;;;5034245;28;51352;-55
2023/07/14 03:09:14;;;;;;;;;7.33;7.33;;;;;;;;5031958;28;50994;-55
2023/07/14 03:11:39;;;;;;;;;8.00;6.33;;;;;;;;5022086;28;51089;-54
2023/07/14 03:14:05;;;;;;;;;7.33;7.33;;;;;;;;5034237;28;50984;-56
2023/07/14 03:16:31;;;;;;;;;3.67;3.67;;;;;;;;5034031;28;51336;-55
2023/07/14 03:18:56;;;;;;;;;7.33;7.33;;;;;;;;5033895;28;52242;-55
2023/07/14 03:21:21;;;;;;;;;8.33;7.67;;;;;;;;5033894;28;51037;-54
2023/07/14 03:23:46;;;;;;;;;8.00;8.00;;;;;;;;5033999;28;50999;-56
2023/07/14 03:26:12;;;;;;;;;7.00;6.00;;;;;;;;5033056;28;51419;-55
2023/07/14 03:28:37;;;;;;;;;8.00;7.00;;;;;;;;5032348;28;52690;-56
2023/07/14 03:31:03;;;;;;;;;6.33;6.33;;;;;;;;5031928;28;51062;-56
2023/07/14 03:33:29;;;;;;;;;6.00;6.00;;;;;;;;5032749;28;50935;-55
2023/07/14 03:35:54;;;;;;;;;6.67;6.00;;;;;;;;5032933;28;51149;-55
2023/07/14 03:38:19;;;;;;;;;7.33;6.33;;;;;;;;5031574;28;51847;-56
2023/07/14 03:40:44;;;;;;;;;8.00;7.67;;;;;;;;5033539;28;51185;-55
2023/07/14 03:43:10;;;;;;;;;8.00;8.00;;;;;;;;5034114;28;51243;-55
2023/07/14 03:45:36;;;;;;;;;6.00;6.00;;;;;;;;5029812;28;51058;-55
2023/07/14 03:48:03;;;;;;;;;8.00;7.33;;;;;;;;5033481;28;52864;-55
2023/07/14 03:50:28;;;;;;;;;7.67;7.67;;;;;;;;5033493;28;50967;-55
2023/07/14 03:52:53;;;;;;;;;8.00;7.67;;;;;;;;5033536;28;50971;-55
2023/07/14 03:55:19;;;;;;;;;9.00;9.00;;;;;;;;5033835;28;51342;-56
2023/07/14 03:57:44;;;;;;;;;6.00;5.67;;;;;;;;5037745;28;52740;-56
2023/07/14 04:00:14;;;;;;;;;6.33;6.33;;;;;;;;5037942;28;51074;-55
2023/07/14 04:02:39;;;;;;;;;6.67;6.33;;;;;;;;5032545;28;51055;-56
2023/07/14 04:05:07;;;;;;;;;5.67;5.67;;;;;;;;5033439;28;50935;-55
2023/07/14 04:07:32;;;;;;;;;9.67;8.67;;;;;;;;5033058;28;51933;-55
2023/07/14 04:09:58;;;;;;;;;9.00;8.33;;;;;;;;5032892;28;50944;-54
2023/07/14 04:12:23;;;;;;;;;6.67;6.67;;;;;;;;5033448;28;50876;-54
2023/07/14 04:14:48;;;;;;;;;8.00;8.00;;;;;;;;5033420;28;51086;-53
2023/07/14 04:17:13;;;;;;;;;9.00;7.00;;;;;;;;5033020;28;51992;-54
2023/07/14 04:19:38;;;;;;;;;10.67;10.67;;;;;;;;5032157;28;51017;-54
2023/07/14 04:22:03;;;;;;;;;9.67;7.67;;;;;;;;5033248;28;51256;-54
2023/07/14 04:24:29;;;;;;;;;14.00;14.00;;;;;;;;5032763;28;51328;-55
2023/07/14 04:26:55;;;;;;;;;13.50;12.00;;;;;;;;5031934;28;51908;-56
2023/07/14 04:29:20;;;;;;;;;16.75;16.50;;;;;;;;5032825;28;51025;-55
2023/07/14 04:31:46;;;;;;;;;10.67;10.00;;;;;;;;5032849;28;51196;-55
2023/07/14 04:34:11;;;;;;;;;9.00;8.00;;;;;;;;5032982;28;51258;-55
2023/07/14 04:36:36;;;;;;;;;8.33;8.00;;;;;;;;5025563;28;51832;-54
2023/07/14 04:39:03;;;;;;;;;10.00;9.00;;;;;;;;5028020;28;51014;-55
2023/07/14 04:41:29;;;;;;;;;7.00;6.25;;;;;;;;5031401;28;51834;-55
2023/07/14 04:43:54;;;;;;;;;13.67;10.67;;;;;;;;5030989;28;50899;-55
2023/07/14 04:46:19;;;;;;;;;9.67;9.67;;;;;;;;5031615;28;52174;-56
2023/07/14 04:48:44;;;;;;;;;10.00;9.00;;;;;;;;5030441;28;51033;-60
2023/07/14 04:51:10;;;;;;;;;12.75;10.50;;;;;;;;5028849;28;51156;-56
2023/07/14 04:53:35;;;;;;;;;10.00;10.00;;;;;;;;5015946;28;51593;-55
2023/07/14 04:56:00;;;;;;;;;9.33;9.33;;;;;;;;5030944;28;51829;-55
2023/07/14 04:58:25;;;;;;;;;9.25;8.50;;;;;;;;5032670;28;50900;-55
2023/07/14 05:00:50;;;;;;;;;9.00;9.00;;;;;;;;5031900;28;51168;-54
2023/07/14 05:03:16;;;;;;;;;9.00;8.00;;;;;;;;5029732;28;51324;-55
2023/07/14 05:05:41;;;;;;;;;10.00;8.00;;;;;;;;5030701;28;51874;-55
2023/07/14 05:08:07;;;;;;;;;9.67;8.33;;;;;;;;5032085;28;51304;-55
2023/07/14 05:10:33;;;;;;;;;7.00;7.00;;;;;;;;5027427;28;50994;-55
2023/07/14 05:13:01;;;;;;;;;9.67;9.00;;;;;;;;5026060;28;51193;-56
2023/07/14 05:15:26;;;;;;;;;9.00;7.00;;;;;;;;5032072;28;53055;-55
2023/07/14 05:17:52;;;;;;;;;7.67;7.33;;;;;;;;5032140;28;51638;-56
2023/07/14 05:20:18;;;;;;;;;8.67;7.67;;;;;;;;5032454;28;51002;-56
2023/07/14 05:22:45;;;;;;;;;9.00;8.00;;;;;;;;5032530;28;51316;-56
2023/07/14 05:25:13;;;;;;;;;6.33;6.33;;;;;;;;5025019;28;52039;-56
2023/07/14 05:27:38;;;;;;;;;6.00;6.00;;;;;;;;5027717;28;50960;-55
2023/07/14 05:30:05;;;;;;;;;7.00;7.00;;;;;;;;5031972;28;50944;-56
2023/07/14 05:32:30;;;;;;;;;7.00;7.00;;;;;;;;5031203;28;51020;-56
2023/07/14 05:34:56;;;;;;;;;8.00;8.00;;;;;;;;5027410;28;51249;-55
2023/07/14 05:37:21;;;;;;;;;8.00;6.33;;;;;;;;5027824;28;51128;-55
2023/07/14 05:39:47;;;;;;;;;9.00;8.00;;;;;;;;5032079;28;51174;-56
2023/07/14 05:42:12;;;;;;;;;8.00;7.67;;;;;;;;5017669;28;51051;-55
2023/07/14 05:44:37;;;;;;;;;6.00;6.00;;;;;;;;5032032;28;51254;-56
2023/07/14 05:47:03;;;;;;;;;8.00;7.00;;;;;;;;5031590;28;50959;-53
2023/07/14 05:49:28;;;;;;;;;6.00;6.00;;;;;;;;5032271;28;51256;-56
2023/07/14 05:51:54;;;;;;;;;7.00;6.00;;;;;;;;5032302;28;51140;-54
2023/07/14 05:54:22;;;;;;;;;5.00;4.67;;;;;;;;5033034;28;52018;-56
2023/07/14 05:56:48;;;;;;;;;4.33;4.00;;;;;;;;5025065;28;51083;-55
2023/07/14 05:59:13;;;;;;;;;4.67;4.33;;;;;;;;5035322;28;51066;-55
2023/07/14 06:01:38;;;;;;;;;7.00;6.67;;;;;;;;5027661;28;51231;-59
2023/07/14 06:04:05;;;;;;;;;5.00;4.67;;;;;;;;5031344;28;52066;-56
2023/07/14 06:06:31;;;;;;;;;4.33;4.00;;;;;;;;5033885;28;51129;-55
2023/07/14 06:08:56;;;;;;;;;5.00;4.00;;;;;;;;5033163;28;51458;-55
2023/07/14 06:11:21;;;;;;;;;6.00;5.00;;;;;;;;5027418;28;53038;-56
2023/07/14 06:13:46;;;;;;;;;5.00;5.00;;;;;;;;5034132;28;51840;-56
2023/07/14 06:16:12;;;;;;;;;5.00;4.67;;;;;;;;5034635;28;51053;-55
2023/07/14 06:18:37;;;;;;;;;4.67;4.33;;;;;;;;5033986;28;51219;-55
2023/07/14 06:21:02;;;;;;;;;5.00;4.00;;;;;;;;5030612;28;51193;-56
2023/07/14 06:23:28;;;;;;;;;4.00;4.00;;;;;;;;5034419;28;51810;-56
2023/07/14 06:25:54;;;;;;;;;7.00;6.00;;;;;;;;5031845;28;51104;-56
2023/07/14 06:28:19;;;;;;;;;7.67;6.00;;;;;;;;5034827;28;51275;-56
2023/07/14 06:30:44;;;;;;;;;6.67;5.67;;;;;;;;5030575;28;51111;-55
2023/07/14 06:33:09;;;;;;;;;6.67;6.00;;;;;;;;5035333;28;51691;-55
2023/07/14 06:35:35;;;;;;;;;6.00;6.00;;;;;;;;5034858;28;50947;-56
2023/07/14 06:38:00;;;;;;;;;7.00;7.00;;;;;;;;5035014;28;50821;-56
2023/07/14 06:40:25;;;;;;;;;8.00;7.00;;;;;;;;5034344;28;51148;-55
2023/07/14 06:42:50;;;;;;;;;5.33;5.33;;;;;;;;5034554;28;51895;-56
2023/07/14 06:45:16;;;;;;;;;8.00;7.00;;;;;;;;5033867;28;51066;-55
2023/07/14 06:47:41;;;;;;;;;6.00;6.00;;;;;;;;5034829;28;50966;-55
2023/07/14 06:50:07;;;;;;;;;7.00;6.00;;;;;;;;5034754;28;51331;-54
2023/07/14 06:52:34;;;;;;;;;7.00;7.00;;;;;;;;5034097;28;51804;-55
2023/07/14 06:54:59;;;;;;;;;6.67;6.67;;;;;;;;5034392;28;50977;-55
2023/07/14 06:57:24;;;;;;;;;6.00;6.00;;;;;;;;5034775;28;51315;-55
2023/07/14 06:59:50;;;;;;;;;9.33;8.67;;;;;;;;5033841;28;51216;-54
2023/07/14 07:02:15;;;;;;;;;7.67;6.67;;;;;;;;5032976;28;51614;-55
2023/07/14 07:04:41;;;;;;;;;7.00;6.67;;;;;;;;5034256;28;51022;-55
2023/07/14 07:07:06;;;;;;;;;9.67;9.00;;;;;;;;5032265;28;51014;-54
2023/07/14 07:09:31;;;;;;;;;8.33;8.00;;;;;;;;5033719;28;51031;-56
2023/07/14 07:11:56;;;;;;;;;5.00;5.00;;;;;;;;5034104;28;52287;-55
2023/07/14 07:14:23;;;;;;;;;8.33;8.00;;;;;;;;5034265;28;51117;-54
2023/07/14 07:16:48;;;;;;;;;8.67;7.33;;;;;;;;5025845;28;50974;-56
2023/07/14 07:19:14;;;;;;;;;8.00;7.00;;;;;;;;5025937;28;51244;-54
2023/07/14 07:21:40;;;;;;;;;8.33;7.33;;;;;;;;5033728;28;51975;-54
2023/07/14 07:24:06;;;;;;;;;8.33;7.33;;;;;;;;5033192;28;50874;-54
2023/07/14 07:26:31;;;;;;;;;7.00;6.67;;;;;;;;5031253;28;51028;-56
2023/07/14 07:28:56;;;;;;;;;8.33;8.00;;;;;;;;5033138;28;51057;-55
2023/07/14 07:31:21;;;;;;;;;6.00;6.00;;;;;;;;5033878;28;51000;-54
2023/07/14 07:33:46;;;;;;;;;9.00;8.67;;;;;;;;5030124;28;51236;-54
2023/07/14 07:36:15;;;;;;;;;9.00;9.00;;;;;;;;5018758;28;51284;-55
2023/07/14 07:38:45;;;;;;;;;8.00;8.00;;;;;;;;5031721;28;50951;-55
2023/07/14 07:41:10;;;;;;;;;8.00;7.67;;;;;;;;5028786;28;52427;-55
2023/07/14 07:43:36;;;;;;;;;6.00;6.00;;;;;;;;5029694;28;51115;-55
2023/07/14 07:46:01;;;;;;;;;8.00;7.00;;;;;;;;5033881;28;50923;-55
2023/07/14 07:48:26;;;;;;;;;6.00;5.67;;;;;;;;5033862;28;51122;-55
2023/07/14 07:50:51;;;;;;;;;8.00;8.00;;;;;;;;5030549;28;51923;-54
2023/07/14 07:53:16;;;;;;;;;7.00;6.67;;;;;;;;5033576;28;50920;-55
2023/07/14 07:55:50;;;;;;;;;6.67;6.67;;;;;;;;5033706;28;51363;-55
2023/07/14 07:58:15;;;;;;;;;8.67;7.00;;;;;;;;5032796;28;51150;-56
2023/07/14 08:00:43;;;;;;;;;6.00;6.00;;;;;;;;5032876;28;52349;-56
2023/07/14 08:03:08;;;;;;;;;6.00;6.00;;;;;;;;5033353;28;50934;-54
2023/07/14 08:05:34;;;;;;;;;5.33;5.33;;;;;;;;5033250;28;51048;-56
2023/07/14 08:08:00;;;;;;;;;7.00;7.00;;;;;;;;5028120;28;51962;-54
2023/07/14 08:10:25;;;;;;;;;7.00;6.00;;;;;;;;5032784;28;52757;-57
2023/07/14 08:12:52;;;;;;;;;7.00;7.00;;;;;;;;5021311;28;51361;-55
2023/07/14 08:15:17;;;;;;;;;7.33;7.33;;;;;;;;5020303;28;51015;-55
2023/07/14 08:17:53;;;;;;;;;6.67;6.00;;;;;;;;5031900;28;51204;-64
2023/07/14 08:20:18;;;;;;;;;3.33;3.00;;;;;;;;5029057;28;52092;-52
2023/07/14 08:22:43;;;;;;;;;10.33;9.00;;;;;;;;5031736;28;50993;-52
2023/07/14 08:25:09;;;;;;;;;7.00;6.67;;;;;;;;5029256;28;51153;-53
2023/07/14 08:27:34;;;;;;;;;5.00;5.00;;;;;;;;5025262;28;51069;-53
2023/07/14 08:29:59;;;;;;;;;7.00;7.00;;;;;;;;5032127;28;51045;-55
2023/07/14 08:32:24;;;;;;;;;6.67;6.33;;;;;;;;5030988;28;51152;-55
2023/07/14 08:34:50;;;;;;;;;8.33;7.67;;;;;;;;5032693;28;51119;-54
2023/07/14 08:37:15;;;;;;;;;8.00;7.33;;;;;;;;5033297;28;51400;-54
2023/07/14 08:39:43;;;;;;;;;6.33;6.33;;;;;;;;5028859;28;50987;-54
2023/07/14 08:42:20;;;;;;;;;6.33;6.00;;;;;;;;5026706;28;50933;-54
2023/07/14 08:45:07;;;;;;;;;6.00;6.00;;;;;;;;5030826;28;51581;-54
2023/07/14 08:47:43;;;;;;;;;6.67;6.67;;;;;;;;5032613;28;51137;-54
2023/07/14 08:50:16;;;;;;;;;6.33;6.33;;;;;;;;5030271;28;52117;-53
2023/07/14 08:52:41;;;;;;;;;4.67;4.67;;;;;;;;5028046;28;51111;-54
2023/07/14 08:55:15;;;;;;;;;4.67;4.00;;;;;;;;5031236;28;51194;-55
2023/07/14 08:57:44;;;;;;;;;6.00;5.33;;;;;;;;5032694;28;50971;-54
2023/07/14 09:00:11;;;;;;;;;7.67;7.00;;;;;;;;5032006;28;51877;-53
2023/07/14 09:02:43;;;;;;;;;5.00;5.00;;;;;;;;5031311;28;51042;-54
2023/07/14 09:05:12;;;;;;;;;2.33;2.33;;;;;;;;5031372;28;51003;-54
2023/07/14 09:07:38;;;;;;;;;5.00;5.00;;;;;;;;5032320;28;50894;-55
2023/07/14 09:10:03;;;;;;;;;4.00;4.00;;;;;;;;5029520;28;52770;-56
2023/07/14 09:12:29;;;;;;;;;3.67;3.67;;;;;;;;5026321;28;51360;-53
2023/07/14 09:15:02;;;;;;;;;4.00;4.00;;;;;;;;5031344;28;51124;-53
2023/07/14 09:17:36;;;;;;;;;2.67;2.67;;;;;;;;5026694;28;50990;-54
2023/07/14 09:20:06;;;;;;;;;3.67;3.67;;;;;;;;5025425;28;52369;-53
2023/07/14 09:22:41;;;;;;;;;6.00;5.00;;;;;;;;5031306;28;50973;-54
2023/07/14 09:25:25;;;;;;;;;4.67;4.00;;;;;;;;5029853;28;51240;-56
2023/07/14 09:27:51;;;;;;;;;4.00;3.67;;;;;;;;5027100;28;51915;-54
2023/07/14 09:30:21;;;;;;;;;3.00;2.67;;;;;;;;5023143;28;51997;-53
2023/07/14 09:32:50;;;;;;;;;4.00;4.00;;;;;;;;5035018;28;50938;-54
2023/07/14 09:35:19;;;;;;;;;4.00;4.00;;;;;;;;5032658;28;51246;-54
2023/07/14 09:37:53;;;;;;;;;4.00;4.00;;;;;;;;5031564;28;50994;-55
2023/07/14 09:40:23;;;;;;;;;6.33;3.00;;;;;;;;5029392;28;51996;-53
2023/07/14 09:42:53;;;;;;;;;5.00;5.00;;;;;;;;5032508;28;51111;-53
2023/07/14 09:45:19;;;;;;;;;4.00;4.00;;;;;;;;5032052;28;51292;-53
2023/07/14 09:47:45;;;;;;;;;3.00;3.00;;;;;;;;5032878;28;51258;-53
2023/07/14 09:50:14;;;;;;;;;3.33;3.33;;;;;;;;5035100;28;51792;-53
2023/07/14 09:52:48;;;;;;;;;4.67;4.33;;;;;;;;5034892;28;51037;-54
2023/07/14 09:55:13;;;;;;;;;2.00;2.00;;;;;;;;5026725;28;51323;-55
2023/07/14 09:57:41;;;;;;;;;3.00;2.67;;;;;;;;5030452;28;50898;-53
2023/07/14 10:00:16;;;;;;;;;4.67;4.67;;;;;;;;5031842;28;52917;-53
2023/07/14 10:02:42;;;;;;;;;6.00;5.00;;;;;;;;5032415;28;51185;-52
2023/07/14 10:05:25;;;;;;;;;4.00;3.67;;;;;;;;5033184;28;51272;-53
2023/07/14 10:07:50;;;;;;;;;3.00;3.00;;;;;;;;5033518;28;51247;-54
2023/07/14 10:10:26;;;;;;;;;28.00;26.50;;;;;;;;5031706;28;51094;-53
2023/07/14 10:12:52;;;;;;;;;3.67;3.00;;;;;;;;5028646;28;51093;-54
2023/07/14 10:15:23;;;;;;;;;3.67;3.67;;;;;;;;5029643;28;51136;-54
2023/07/14 10:17:53;;;;;;;;;3.67;3.00;;;;;;;;5032107;28;51297;-53
2023/07/14 10:20:19;;;;;;;;;3.00;3.00;;;;;;;;5031556;28;51810;-54
2023/07/14 10:22:44;;;;;;;;;5.00;4.67;;;;;;;;5032363;28;51037;-54
2023/07/14 10:25:16;;;;;;;;;5.67;5.67;;;;;;;;5031751;28;51082;-54
2023/07/14 10:27:50;;;;;;;;;4.67;4.00;;;;;;;;5015821;28;51281;-52
2023/07/14 10:30:31;;;;;;;;;5.00;4.00;;;;;;;;5026340;28;51793;-54
2023/07/14 10:32:59;;;;;;;;;4.33;3.67;;;;;;;;5031687;28;51085;-53
2023/07/14 10:35:26;;;;;;;;;3.00;3.00;;;;;;;;5034535;28;51038;-54
2023/07/14 10:38:13;;;;;;;;;5.00;4.67;;;;;;;;5034290;28;51372;-55
2023/07/14 10:40:40;;;;;;;;;4.67;4.00;;;;;;;;5032645;28;51308;-54
2023/07/14 10:43:16;;;;;;;;;4.00;3.00;;;;;;;;5034170;28;51091;-53
2023/07/14 10:45:44;;;;;;;;;3.00;3.00;;;;;;;;5031141;28;51019;-55
2023/07/14 10:48:18;;;;;;;;;6.00;6.00;;;;;;;;5023623;28;51154;-53
2023/07/14 10:50:50;;;;;;;;;3.00;2.67;;;;;;;;5033557;28;51063;-54
2023/07/14 10:53:18;;;;;;;;;28.00;25.75;;;;;;;;5031975;28;51102;-54
2023/07/14 10:55:46;;;;;;;;;3.67;3.67;;;;;;;;5034031;28;50904;-54
2023/07/14 10:58:24;;;;;;;;;6.67;6.00;;;;;;;;5034464;28;50948;-52
2023/07/14 11:00:53;;;;;;;;;4.00;3.67;;;;;;;;5033832;28;52038;-52
2023/07/14 11:03:48;;;;;;;;;3.67;3.67;;;;;;;;5029401;28;51126;-53
2023/07/14 11:06:18;;;;;;;;;2.33;2.33;;;;;;;;5033096;28;51018;-54
2023/07/14 11:08:46;;;;;;;;;4.00;4.00;;;;;;;;5033130;28;51303;-54
2023/07/14 11:11:20;;;;;;;;;4.33;4.00;;;;;;;;5033378;28;52189;-50
2023/07/14 11:14:00;;;;;;;;;5.50;4.50;;;;;;;;5033840;28;50993;-55
2023/07/14 11:16:44;;;;;;;;;5.33;5.33;;;;;;;;5033662;28;51183;-55
2023/07/14 11:19:20;;;;;;;;;4.00;4.00;;;;;;;;5032687;28;51163;-54
2023/07/14 11:21:57;;;;;;;;;4.33;4.33;;;;;;;;5031736;28;54615;-53
2023/07/14 11:24:33;;;;;;;;;4.33;3.67;;;;;;;;5033124;28;51115;-54
2023/07/14 11:27:00;;;;;;;;;3.33;3.00;;;;;;;;5033502;28;51095;-55
2023/07/14 11:29:38;;;;;;;;;3.00;3.00;;;;;;;;5033604;28;50934;-54
2023/07/14 11:32:04;;;;;;;;;4.00;4.00;;;;;;;;5033191;28;51772;-53
2023/07/14 11:34:35;;;;;;;;;3.67;3.67;;;;;;;;5033419;28;50882;-53
2023/07/14 11:37:00;;;;;;;;;3.00;3.00;;;;;;;;5022446;28;51103;-51
2023/07/14 11:39:44;;;;;;;;;3.67;3.33;;;;;;;;5027228;28;51166;-53
2023/07/14 11:42:20;;;;;;;;;4.67;4.00;;;;;;;;5026766;28;52510;-54
2023/07/14 11:44:47;;;;;;;;;5.00;5.00;;;;;;;;5029788;28;51063;-53
2023/07/14 11:47:20;;;;;;;;;3.00;3.00;;;;;;;;5029616;28;51048;-54
2023/07/14 11:49:45;;;;;;;;;5.00;5.00;;;;;;;;5032464;28;51038;-54
2023/07/14 11:52:12;;;;;;;;;5.00;5.00;;;;;;;;5024480;28;51079;-55
2023/07/14 11:54:55;;;;;;;;;4.00;4.00;;;;;;;;5022500;28;50943;-53
2023/07/14 11:57:21;;;;;;;;;4.67;4.00;;;;;;;;5032576;28;51018;-58
2023/07/14 11:59:55;;;;;;;;;4.00;4.00;;;;;;;;5032228;28;51059;-57
2023/07/14 12:02:36;;;;;;;;;3.33;3.33;;;;;;;;5025086;28;51853;-57
2023/07/14 12:05:24;;;;;;;;;5.00;4.00;;;;;;;;5025127;28;51167;-57
2023/07/14 12:08:04;;;;;;;;;5.00;4.67;;;;;;;;5027081;28;51193;-58
2023/07/14 12:10:50;;;;;;;;;4.00;4.00;;;;;;;;5025724;28;51472;-57
2023/07/14 12:13:18;;;;;;;;;3.33;3.33;;;;;;;;5024697;28;51759;-57
2023/07/14 12:15:47;;;;;;;;;5.33;4.33;;;;;;;;5028412;28;50969;-57
2023/07/14 12:18:22;;;;;;;;;2.00;2.00;;;;;;;;5027164;28;50976;-57
2023/07/14 12:20:47;;;;;;;;;4.00;4.00;;;;;;;;5031793;28;51169;-57
2023/07/14 12:23:17;;;;;;;;;4.67;4.00;;;;;;;;5031214;28;51691;-56
2023/07/14 12:25:47;;;;;;;;;3.00;3.00;;;;;;;;5022270;28;51131;-57
2023/07/14 12:28:25;;;;;;;;;6.33;6.00;;;;;;;;5026223;28;51003;-56
2023/07/14 12:30:51;;;;;;;;;5.00;5.00;;;;;;;;5032254;28;50851;-57
2023/07/14 12:33:19;;;;;;;;;3.00;3.00;;;;;;;;5031803;28;53453;-56
2023/07/14 12:35:45;;;;;;;;;3.67;3.67;;;;;;;;5031966;28;51054;-56
2023/07/14 12:38:13;;;;;;;;;4.33;4.00;;;;;;;;5030592;28;50975;-56
2023/07/14 12:40:39;;;;;;;;;5.00;5.00;;;;;;;;5032125;28;51122;-57
2023/07/14 12:43:06;;;;;;;;;3.00;3.00;;;;;;;;5030795;28;54059;-57
2023/07/14 12:45:33;;;;;;;;;3.67;3.00;;;;;;;;5032289;28;51273;-58
2023/07/14 12:48:01;;;;;;;;;4.00;4.00;;;;;;;;5026532;28;50979;-58
2023/07/14 12:50:26;;;;;;;;;6.00;5.67;;;;;;;;5032435;28;50920;-58
2023/07/14 12:52:52;;;;;;;;;3.00;3.00;;;;;;;;5031632;28;51128;-59
2023/07/14 12:55:18;;;;;;;;;4.33;4.33;;;;;;;;5030335;28;50869;-58
2023/07/14 12:57:45;;;;;;;;;6.00;5.00;;;;;;;;5031085;28;50867;-58
2023/07/14 13:00:22;;;;;;;;;3.67;3.33;;;;;;;;5032310;28;51993;-57
2023/07/14 13:02:49;;;;;;;;;5.33;4.33;;;;;;;;5020421;28;51074;-56
2023/07/14 13:05:15;;;;;;;;;6.00;5.00;;;;;;;;5028831;28;51159;-57
2023/07/14 13:07:45;;;;;;;;;5.00;5.00;;;;;;;;5031770;28;50993;-57
2023/07/14 13:10:19;;;;;;;;;5.67;5.00;;;;;;;;5030817;28;51436;-56
2023/07/14 13:12:45;;;;;;;;;4.33;4.33;;;;;;;;5031743;28;51752;-56
2023/07/14 13:15:16;;;;;;;;;2.67;2.67;;;;;;;;5031933;28;50996;-56
2023/07/14 13:17:41;;;;;;;;;5.00;5.00;;;;;;;;5030802;28;51066;-56
2023/07/14 13:20:08;;;;;;;;;5.33;5.00;;;;;;;;5030472;28;51332;-56
2023/07/14 13:22:34;;;;;;;;;4.00;4.00;;;;;;;;5031377;28;51648;-56
2023/07/14 13:25:03;;;;;;;;;4.67;4.67;;;;;;;;5030899;28;50979;-57
2023/07/14 13:27:30;;;;;;;;;3.33;3.33;;;;;;;;5025440;28;50957;-58
2023/07/14 13:30:00;;;;;;;;;3.33;3.33;;;;;;;;5029196;28;51162;-55
2023/07/14 13:32:26;;;;;;;;;2.33;2.33;;;;;;;;5021765;28;51195;-57
2023/07/14 13:34:55;;;;;;;;;4.00;3.00;;;;;;;;5027527;28;52571;-57
2023/07/14 13:37:21;;;;;;;;;3.00;3.00;;;;;;;;5029024;28;51073;-57
2023/07/14 13:39:53;;;;;;;;;4.33;4.33;;;;;;;;5030637;28;51027;-56
2023/07/14 13:42:33;;;;;;;;;3.00;3.00;;;;;;;;5031228;28;53141;-56
2023/07/14 13:44:59;;;;;;;;;3.00;2.67;;;;;;;;5030430;28;50886;-56
2023/07/14 13:47:26;;;;;;;;;4.67;4.00;;;;;;;;5015600;28;51061;-55
2023/07/14 13:49:53;;;;;;;;;5.00;3.33;;;;;;;;5018632;28;51015;-55
2023/07/14 13:52:20;;;;;;;;;2.00;2.00;;;;;;;;5026883;28;52252;-55
2023/07/14 13:54:53;;;;;;;;;2.67;2.67;;;;;;;;5029220;28;51029;-55
2023/07/14 13:57:18;;;;;;;;;3.00;3.00;;;;;;;;5029704;28;51110;-55
2023/07/14 13:59:45;;;;;;;;;2.00;2.00;;;;;;;;5021881;28;51203;-57
2023/07/14 14:02:23;;;;;;;;;3.67;3.00;;;;;;;;5027073;28;51861;-57
2023/07/14 14:04:48;;;;;;;;;3.00;3.00;;;;;;;;5028050;28;51015;-57
2023/07/14 14:07:13;;;;;;;;;2.67;2.33;;;;;;;;5030704;28;51113;-57
2023/07/14 14:09:38;;;;;;;;;1.67;1.67;;;;;;;;5018864;28;51172;-56
2023/07/14 14:12:04;;;;;;;;;3.33;2.67;;;;;;;;5026982;28;51965;-56
2023/07/14 14:14:29;;;;;;;;;2.67;2.67;;;;;;;;5029804;28;51042;-56
2023/07/14 14:16:54;;;;;;;;;2.33;2.33;;;;;;;;5034333;28;50983;-56
2023/07/14 14:19:23;;;;;;;;;2.00;2.00;;;;;;;;5034469;28;51075;-56
2023/07/14 14:21:49;;;;;;;;;5.33;5.33;;;;;;;;5034176;28;51721;-56
2023/07/14 14:24:15;;;;;;;;;5.00;3.33;;;;;;;;5031818;28;50956;-56
2023/07/14 14:26:41;;;;;;;;;3.67;3.00;;;;;;;;5034186;28;50932;-56
2023/07/14 14:29:06;;;;;;;;;3.33;3.00;;;;;;;;5034454;28;51049;-57
2023/07/14 14:31:32;;;;;;;;;3.00;3.00;;;;;;;;5034297;28;50916;-57
2023/07/14 14:33:58;;;;;;;;;3.00;3.00;;;;;;;;5034535;28;50940;-56
2023/07/14 14:36:23;;;;;;;;;2.00;2.00;;;;;;;;5033917;28;50988;-56
2023/07/14 14:38:49;;;;;;;;;3.33;2.33;;;;;;;;5034109;28;50852;-57
2023/07/14 14:41:24;;;;;;;;;2.50;2.50;;;;;;;;5021096;28;50894;-56
2023/07/14 14:43:52;;;;;;;;;2.00;2.00;;;;;;;;5034055;28;50929;-56